createdAt,value
2019-02-20T00:00:22.672Z,40.37
2019-02-20T00:02:51.087Z,31.47
2019-02-20T00:05:19.501Z,29.93
2019-02-20T00:07:48.121Z,30.47
2019-02-20T00:10:18.222Z,44.90
2019-02-20T00:12:46.632Z,44.80
2019-02-20T00:15:15.037Z,43.57
2019-02-20T00:17:43.447Z,45.60
2019-02-20T00:20:11.860Z,45.47
2019-02-20T00:22:40.624Z,36.50
2019-02-20T00:25:09.251Z,35.23
2019-02-20T00:27:37.667Z,42.57
2019-02-20T00:30:10.547Z,47.50
2019-02-20T00:32:38.964Z,38.73
2019-02-20T00:35:07.425Z,45.87
2019-02-20T00:37:35.828Z,33.03
2019-02-20T00:40:07.388Z,37.37
2019-02-20T00:42:35.852Z,38.40
2019-02-20T00:45:18.913Z,36.13
2019-02-20T00:48:07.132Z,45.17
2019-02-20T00:50:39.910Z,44.30
2019-02-20T00:53:27.709Z,33.90
2019-02-20T00:55:56.250Z,48.03
2019-02-20T00:58:25.111Z,41.53
2019-02-20T01:00:53.517Z,32.07
2019-02-20T01:03:21.937Z,37.53
2019-02-20T01:05:50.359Z,30.67
2019-02-20T01:08:18.760Z,32.03
2019-02-20T01:10:47.176Z,39.30
2019-02-20T01:13:15.597Z,29.23
2019-02-20T01:15:44.079Z,30.87
2019-02-20T01:18:12.476Z,24.87
2019-02-20T01:20:40.892Z,32.00
2019-02-20T01:23:09.297Z,46.37
2019-02-20T01:25:37.712Z,33.43
2019-02-20T01:28:06.185Z,35.67
2019-02-20T01:30:34.612Z,54.23
2019-02-20T01:33:03.008Z,32.53
2019-02-20T01:35:31.422Z,28.40
2019-02-20T01:37:59.937Z,22.30
2019-02-20T01:40:28.344Z,35.73
2019-02-20T01:42:56.803Z,30.27
2019-02-20T01:45:25.255Z,25.00
2019-02-20T01:47:53.753Z,35.20
2019-02-20T01:50:22.165Z,35.80
2019-02-20T01:52:50.560Z,27.03
2019-02-20T01:55:18.995Z,20.83
2019-02-20T01:57:47.393Z,24.67
2019-02-20T02:00:15.832Z,34.77
2019-02-20T02:02:44.229Z,33.13
2019-02-20T02:05:15.516Z,47.07
2019-02-20T02:07:42.791Z,29.70
2019-02-20T02:10:11.431Z,31.43
2019-02-20T02:12:39.920Z,31.03
2019-02-20T02:15:09.477Z,34.50
2019-02-20T02:17:37.928Z,21.40
2019-02-20T02:20:08.685Z,50.63
2019-02-20T02:22:37.123Z,31.43
2019-02-20T02:25:06.160Z,27.63
2019-02-20T02:27:34.575Z,21.07
2019-02-20T02:30:03.649Z,40.07
2019-02-20T02:32:32.069Z,33.33
2019-02-20T02:35:00.468Z,23.10
2019-02-20T02:37:28.898Z,27.93
2019-02-20T02:39:57.300Z,37.90
2019-02-20T02:42:25.712Z,33.70
2019-02-20T02:44:54.177Z,31.77
2019-02-20T02:47:22.736Z,32.40
2019-02-20T02:49:51.242Z,32.70
2019-02-20T02:52:19.649Z,38.47
2019-02-20T02:54:48.056Z,32.63
2019-02-20T02:57:16.468Z,27.30
2019-02-20T02:59:44.881Z,27.90
2019-02-20T03:02:13.380Z,30.47
2019-02-20T03:04:41.792Z,31.03
2019-02-20T03:07:10.202Z,25.83
2019-02-20T03:09:38.606Z,29.77
2019-02-20T03:12:07.048Z,41.40
2019-02-20T03:14:35.452Z,32.93
2019-02-20T03:17:03.889Z,42.53
2019-02-20T03:19:32.284Z,42.40
2019-02-20T03:22:00.700Z,42.07
2019-02-20T03:24:29.100Z,38.90
2019-02-20T03:26:57.517Z,29.43
2019-02-20T03:29:25.936Z,29.53
2019-02-20T03:31:54.362Z,34.23
2019-02-20T03:34:22.789Z,39.03
2019-02-20T03:36:51.294Z,35.83
2019-02-20T03:39:19.712Z,39.10
2019-02-20T03:41:49.080Z,37.27
2019-02-20T03:44:17.820Z,47.07
2019-02-20T03:46:46.250Z,49.57
2019-02-20T03:49:14.657Z,38.00
2019-02-20T03:51:43.110Z,51.10
2019-02-20T03:54:11.522Z,41.83
2019-02-20T03:56:40.123Z,38.97
2019-02-20T03:59:08.541Z,58.47
2019-02-20T04:01:36.945Z,47.17
2019-02-20T04:04:05.355Z,41.80
2019-02-20T04:06:33.769Z,36.37
2019-02-20T04:09:02.184Z,41.13
2019-02-20T04:11:30.740Z,51.17
2019-02-20T04:13:59.143Z,46.83
2019-02-20T04:16:27.546Z,47.43
2019-02-20T04:18:55.993Z,40.90
2019-02-20T04:21:24.401Z,47.23
2019-02-20T04:24:01.950Z,56.57
2019-02-20T04:26:22.950Z,44.63
2019-02-20T04:28:51.369Z,40.70
2019-02-20T04:31:19.792Z,59.27
2019-02-20T04:33:48.203Z,39.90
2019-02-20T04:36:16.622Z,39.57
2019-02-20T04:38:45.105Z,57.47
2019-02-20T04:41:13.545Z,49.57
2019-02-20T04:43:41.969Z,46.47
2019-02-20T04:46:10.377Z,48.03
2019-02-20T04:48:38.795Z,68.87
2019-02-20T04:51:07.197Z,42.50
2019-02-20T04:53:35.619Z,46.07
2019-02-20T04:56:04.026Z,34.87
2019-02-20T04:58:32.439Z,54.17
2019-02-20T05:01:00.841Z,40.63
2019-02-20T05:03:29.267Z,53.97
2019-02-20T05:05:57.680Z,36.43
2019-02-20T05:08:26.091Z,45.37
2019-02-20T05:10:54.511Z,40.73
2019-02-20T05:13:22.914Z,46.27
2019-02-20T05:15:51.466Z,45.70
2019-02-20T05:18:20.001Z,53.23
2019-02-20T05:20:48.405Z,51.23
2019-02-20T05:23:16.826Z,55.87
2019-02-20T05:25:45.234Z,34.30
2019-02-20T05:28:13.654Z,47.97
2019-02-20T05:30:42.068Z,53.43
2019-02-20T05:33:10.469Z,45.27
2019-02-20T05:35:38.905Z,38.53
2019-02-20T05:38:07.324Z,52.77
2019-02-20T05:40:35.759Z,46.43
2019-02-20T05:43:04.184Z,49.60
2019-02-20T05:45:32.598Z,41.93
2019-02-20T05:48:01.006Z,47.37
2019-02-20T05:50:29.419Z,36.60
2019-02-20T05:52:57.833Z,43.53
2019-02-20T05:55:26.353Z,40.67
2019-02-20T05:57:54.822Z,50.80
2019-02-20T06:00:23.237Z,54.77
2019-02-20T06:02:51.653Z,47.40
2019-02-20T06:05:20.099Z,58.87
2019-02-20T06:07:48.485Z,42.10
2019-02-20T06:10:16.910Z,57.83
2019-02-20T06:12:45.315Z,59.07
2019-02-20T06:15:14.917Z,35.87
2019-02-20T06:17:43.319Z,37.20
2019-02-20T06:20:12.168Z,48.40
2019-02-20T06:22:40.568Z,56.67
2019-02-20T06:25:09.021Z,49.07
2019-02-20T06:27:39.263Z,37.33
2019-02-20T06:30:10.218Z,45.47
2019-02-20T06:32:38.903Z,48.87
2019-02-20T06:35:07.580Z,59.37
2019-02-20T06:37:36.077Z,54.77
2019-02-20T06:40:06.130Z,57.37
2019-02-20T06:42:34.657Z,36.70
2019-02-20T06:45:03.859Z,56.10
2019-02-20T06:47:32.260Z,54.50
2019-02-20T06:50:01.230Z,43.53
2019-02-20T06:52:30.432Z,46.37
2019-02-20T06:54:58.859Z,46.80
2019-02-20T06:57:27.257Z,48.07
2019-02-20T06:59:56.078Z,45.27
2019-02-20T07:02:24.950Z,56.10
2019-02-20T07:05:28.157Z,38.90
2019-02-20T07:08:22.280Z,42.57
2019-02-20T07:11:00.139Z,44.60
2019-02-20T07:13:31.614Z,46.13
2019-02-20T07:16:03.112Z,49.90
2019-02-20T07:18:37.453Z,49.10
2019-02-20T07:21:17.962Z,51.33
2019-02-20T07:24:15.090Z,45.07
2019-02-20T07:27:13.484Z,47.57
2019-02-20T07:29:43.909Z,62.67
2019-02-20T07:32:17.469Z,48.23
2019-02-20T07:34:45.890Z,46.70
2019-02-20T07:37:14.311Z,68.93
2019-02-20T07:39:42.750Z,50.17
2019-02-20T07:42:11.217Z,56.80
2019-02-20T07:44:39.689Z,50.20
2019-02-20T07:47:08.149Z,49.40
2019-02-20T07:49:36.556Z,55.20
2019-02-20T07:52:04.992Z,54.23
2019-02-20T07:54:33.401Z,51.37
2019-02-20T07:57:01.834Z,54.77
2019-02-20T07:59:30.254Z,61.57
2019-02-20T08:01:58.676Z,57.40
2019-02-20T08:04:27.099Z,50.37
2019-02-20T08:06:55.601Z,62.77
2019-02-20T08:09:24.011Z,41.00
2019-02-20T08:11:52.420Z,58.43
2019-02-20T08:14:20.835Z,49.50
2019-02-20T08:16:52.236Z,57.10
2019-02-20T08:19:21.662Z,47.90
2019-02-20T08:21:50.988Z,54.63
2019-02-20T08:24:19.426Z,52.17
2019-02-20T08:26:47.840Z,61.03
2019-02-20T08:29:16.257Z,52.30
2019-02-20T08:31:44.749Z,60.60
2019-02-20T08:34:13.196Z,52.63
2019-02-20T08:36:41.606Z,61.30
2019-02-20T08:39:10.033Z,55.50
2019-02-20T08:41:38.536Z,46.80
2019-02-20T08:44:07.016Z,58.33
2019-02-20T08:46:35.491Z,65.17
2019-02-20T08:49:03.944Z,54.73
2019-02-20T08:51:32.380Z,50.63
2019-02-20T08:54:00.837Z,42.70
2019-02-20T08:56:29.350Z,50.27
2019-02-20T08:58:57.805Z,45.47
2019-02-20T09:01:26.216Z,55.13
2019-02-20T09:03:54.646Z,49.80
2019-02-20T09:06:23.144Z,47.03
2019-02-20T09:08:51.560Z,47.67
2019-02-20T09:11:19.980Z,61.90
2019-02-20T09:13:48.408Z,50.43
2019-02-20T09:16:16.819Z,55.30
2019-02-20T09:18:45.263Z,53.13
2019-02-20T09:21:13.669Z,62.27
2019-02-20T09:23:42.090Z,42.40
2019-02-20T09:26:10.504Z,52.80
2019-02-20T09:28:38.921Z,56.63
2019-02-20T09:31:07.346Z,59.73
2019-02-20T09:33:35.759Z,47.87
2019-02-20T09:36:04.167Z,47.63
2019-02-20T09:38:32.634Z,52.10
2019-02-20T09:41:01.047Z,61.47
2019-02-20T09:43:29.478Z,65.17
2019-02-20T09:45:57.880Z,54.87
2019-02-20T09:48:26.307Z,57.20
2019-02-20T09:50:54.717Z,62.33
2019-02-20T09:53:23.147Z,54.33
2019-02-20T09:55:52.071Z,62.63
2019-02-20T09:58:20.664Z,56.57
2019-02-20T10:00:49.063Z,64.13
2019-02-20T10:03:17.459Z,61.43
2019-02-20T10:05:45.879Z,63.60
2019-02-20T10:08:14.285Z,50.23
2019-02-20T10:10:42.705Z,59.67
2019-02-20T10:13:11.613Z,67.43
2019-02-20T10:15:40.204Z,60.00
2019-02-20T10:18:08.651Z,51.73
2019-02-20T10:20:37.060Z,52.03
2019-02-20T10:23:05.490Z,61.13
2019-02-20T10:25:33.918Z,68.10
2019-02-20T10:28:02.324Z,47.07
2019-02-20T10:30:30.756Z,63.37
2019-02-20T10:32:59.172Z,54.03
2019-02-20T10:35:29.812Z,52.50
2019-02-20T10:37:57.712Z,62.13
2019-02-20T10:40:26.125Z,59.63
2019-02-20T10:42:54.535Z,64.23
2019-02-20T10:45:22.953Z,63.60
2019-02-20T10:47:51.363Z,57.20
2019-02-20T10:50:19.777Z,61.27
2019-02-20T10:52:49.506Z,44.40
2019-02-20T10:55:17.923Z,70.27
2019-02-20T10:57:46.337Z,56.00
2019-02-20T11:00:24.201Z,43.40
2019-02-20T11:02:53.235Z,52.60
2019-02-20T11:05:21.732Z,52.63
2019-02-20T11:07:50.141Z,56.63
2019-02-20T11:10:18.576Z,51.93
2019-02-20T11:12:46.986Z,52.53
2019-02-20T11:15:15.416Z,57.17
2019-02-20T11:17:43.812Z,61.47
2019-02-20T11:20:13.666Z,66.70
2019-02-20T11:22:42.473Z,55.10
2019-02-20T11:25:12.344Z,50.47
2019-02-20T11:27:40.739Z,54.73
2019-02-20T11:30:18.009Z,48.30
2019-02-20T11:32:46.413Z,59.97
2019-02-20T11:35:14.905Z,63.33
2019-02-20T11:37:43.322Z,59.00
2019-02-20T11:40:11.739Z,58.67
2019-02-20T11:42:40.139Z,51.90
2019-02-20T11:45:13.768Z,59.00
2019-02-20T11:47:42.245Z,61.10
2019-02-20T11:50:11.280Z,52.47
2019-02-20T11:52:40.275Z,67.13
2019-02-20T11:55:18.412Z,53.33
2019-02-20T11:57:46.846Z,51.47
2019-02-20T12:00:17.290Z,48.60
2019-02-20T12:02:48.433Z,62.57
2019-02-20T12:05:16.855Z,46.00
2019-02-20T12:07:45.264Z,47.37
2019-02-20T12:10:16.572Z,59.23
2019-02-20T12:12:45.010Z,54.47
2019-02-20T12:15:13.490Z,50.37
2019-02-20T12:17:45.029Z,68.47
2019-02-20T12:20:13.620Z,46.33
2019-02-20T12:22:49.793Z,48.83
2019-02-20T12:25:18.200Z,68.17
2019-02-20T12:27:46.621Z,55.47
2019-02-20T12:30:15.137Z,46.10
2019-02-20T12:32:43.604Z,55.47
2019-02-20T12:35:12.084Z,61.37
2019-02-20T12:37:40.545Z,65.97
2019-02-20T12:40:10.961Z,68.30
2019-02-20T12:42:39.369Z,65.30
2019-02-20T12:45:08.913Z,64.03
2019-02-20T12:47:37.336Z,71.30
2019-02-20T12:50:08.984Z,63.47
2019-02-20T12:52:37.392Z,86.23
2019-02-20T12:55:07.340Z,85.53
2019-02-20T12:57:35.744Z,85.47
2019-02-20T13:00:06.972Z,87.23
2019-02-20T13:02:36.074Z,76.53
2019-02-20T13:05:06.389Z,83.97
2019-02-20T13:07:34.804Z,76.90
2019-02-20T13:10:03.244Z,72.43
2019-02-20T13:12:31.670Z,77.87
2019-02-20T13:15:00.096Z,95.40
2019-02-20T13:17:28.977Z,84.17
2019-02-20T13:19:57.413Z,74.83
2019-02-20T13:22:25.849Z,82.27
2019-02-20T13:24:54.267Z,74.13
2019-02-20T13:27:23.199Z,83.30
2019-02-20T13:29:51.770Z,79.70
2019-02-20T13:32:20.178Z,71.37
2019-02-20T13:34:48.653Z,79.40
2019-02-20T13:37:17.105Z,75.27
2019-02-20T13:39:45.570Z,74.50
2019-02-20T13:42:14.006Z,81.73
2019-02-20T13:44:42.417Z,78.13
2019-02-20T13:47:10.907Z,71.80
2019-02-20T13:49:39.317Z,71.53
2019-02-20T13:52:07.807Z,62.10
2019-02-20T13:54:36.229Z,48.77
2019-02-20T13:57:04.864Z,61.47
2019-02-20T13:59:33.846Z,64.60
2019-02-20T14:02:02.326Z,58.10
2019-02-20T14:04:30.737Z,56.03
2019-02-20T14:06:59.860Z,70.33
2019-02-20T14:09:28.544Z,64.80
2019-02-20T14:11:58.385Z,55.03
2019-02-20T14:14:26.800Z,51.43
2019-02-20T14:16:55.778Z,63.63
2019-02-20T14:19:24.330Z,71.47
2019-02-20T14:21:52.851Z,62.20
2019-02-20T14:24:21.315Z,55.60
2019-02-20T14:26:49.724Z,57.40
2019-02-20T14:29:18.208Z,53.07
2019-02-20T14:31:46.619Z,55.93
2019-02-20T14:34:15.217Z,57.63
2019-02-20T14:36:43.667Z,56.17
2019-02-20T14:39:12.150Z,46.77
2019-02-20T14:41:40.642Z,54.73
2019-02-20T14:44:09.060Z,44.47
2019-02-20T14:46:37.544Z,56.20
2019-02-20T14:49:06.022Z,48.13
2019-02-20T14:51:34.507Z,47.37
2019-02-20T14:54:03.014Z,60.63
2019-02-20T14:56:31.419Z,56.93
2019-02-20T14:58:59.875Z,56.77
2019-02-20T15:01:28.284Z,57.57
2019-02-20T15:03:56.697Z,55.60
2019-02-20T15:06:25.863Z,52.83
2019-02-20T15:08:54.285Z,62.43
2019-02-20T15:11:22.783Z,53.93
2019-02-20T15:13:51.203Z,51.57
2019-02-20T15:16:19.609Z,48.90
2019-02-20T15:18:48.032Z,44.50
2019-02-20T15:21:18.128Z,53.67
2019-02-20T15:23:47.017Z,48.27
2019-02-20T15:26:15.540Z,45.67
2019-02-20T15:28:44.217Z,49.20
2019-02-20T15:31:12.677Z,43.83
2019-02-20T15:33:41.143Z,52.03
2019-02-20T15:36:09.552Z,40.83
2019-02-20T15:38:38.032Z,40.93
2019-02-20T15:41:06.535Z,46.10
2019-02-20T15:43:34.952Z,41.33
2019-02-20T15:46:03.396Z,32.70
2019-02-20T15:48:31.883Z,48.10
2019-02-20T15:51:00.320Z,41.50
2019-02-20T15:53:28.820Z,44.93
2019-02-20T15:55:57.767Z,32.10
2019-02-20T15:58:27.295Z,39.23
2019-02-20T16:00:56.020Z,38.93
2019-02-20T16:03:24.479Z,32.57
2019-02-20T16:05:52.978Z,28.40
2019-02-20T16:08:21.739Z,34.30
2019-02-20T16:10:50.181Z,35.03
2019-02-20T16:13:18.860Z,34.63
2019-02-20T16:15:47.434Z,39.03
2019-02-20T16:18:16.171Z,37.23
2019-02-20T16:20:44.675Z,32.27
2019-02-20T16:23:13.077Z,40.17
2019-02-20T16:25:44.903Z,31.93
2019-02-20T16:28:13.728Z,29.83
2019-02-20T16:30:42.412Z,34.40
2019-02-20T16:33:10.914Z,30.93
2019-02-20T16:35:39.378Z,29.30
2019-02-20T16:38:07.906Z,25.47
2019-02-20T16:40:36.402Z,24.80
2019-02-20T16:43:05.208Z,22.13
2019-02-20T16:45:34.560Z,22.10
2019-02-20T16:48:02.967Z,16.53
2019-02-20T16:50:31.378Z,18.03
2019-02-20T16:52:59.796Z,22.50
2019-02-20T16:55:28.371Z,20.17
2019-02-20T16:57:57.238Z,17.60
2019-02-20T17:00:25.955Z,27.40
2019-02-20T17:02:54.641Z,15.40
2019-02-20T17:05:23.413Z,20.90
2019-02-20T17:07:51.831Z,21.07
2019-02-20T17:10:20.302Z,13.93
2019-02-20T17:12:48.784Z,13.47
2019-02-20T17:15:17.866Z,9.87
2019-02-20T17:17:46.265Z,11.37
2019-02-20T17:20:18.899Z,18.30
2019-02-20T17:22:47.849Z,12.03
2019-02-20T17:25:17.214Z,18.00
2019-02-20T17:27:45.656Z,13.77
2019-02-20T17:30:17.148Z,11.23
2019-02-20T17:32:46.214Z,19.27
2019-02-20T17:35:16.849Z,18.90
2019-02-20T17:37:45.104Z,17.13
2019-02-20T17:40:14.657Z,26.87
2019-02-20T17:42:43.064Z,8.77
2019-02-20T17:45:13.769Z,24.73
2019-02-20T17:47:43.110Z,13.13
2019-02-20T17:50:25.494Z,14.50
2019-02-20T17:52:53.966Z,19.67
2019-02-20T17:55:22.364Z,17.33
2019-02-20T17:57:50.777Z,16.40
2019-02-20T18:00:21.542Z,13.80
2019-02-20T18:02:50.029Z,12.20
2019-02-20T18:05:18.529Z,25.93
2019-02-20T18:07:51.462Z,19.93
2019-02-20T18:10:17.096Z,17.30
2019-02-20T18:12:45.556Z,11.37
2019-02-20T18:15:15.189Z,18.40
2019-02-20T18:17:43.674Z,19.17
2019-02-20T18:20:12.304Z,13.53
2019-02-20T18:22:40.698Z,22.67
2019-02-20T18:25:13.048Z,12.87
2019-02-20T18:27:41.486Z,24.87
2019-02-20T18:30:16.529Z,19.47
2019-02-20T18:32:44.949Z,11.27
2019-02-20T18:35:16.084Z,11.57
2019-02-20T18:37:44.595Z,16.43
2019-02-20T18:40:17.635Z,13.90
2019-02-20T18:42:46.052Z,14.50
2019-02-20T18:45:15.668Z,18.60
2019-02-20T18:47:44.137Z,11.90
2019-02-20T18:50:16.096Z,14.33
2019-02-20T18:52:44.494Z,25.10
2019-02-20T18:55:14.047Z,23.87
2019-02-20T18:57:42.472Z,28.70
2019-02-20T19:00:14.062Z,14.43
2019-02-20T19:02:43.022Z,19.13
2019-02-20T19:05:12.599Z,15.97
2019-02-20T19:07:41.102Z,16.83
2019-02-20T19:10:12.603Z,10.40
2019-02-20T19:13:00.532Z,11.23
2019-02-20T19:15:32.061Z,12.93
2019-02-20T19:18:06.720Z,18.27
2019-02-20T19:20:44.362Z,15.20
2019-02-20T19:23:27.655Z,21.97
2019-02-20T19:26:11.068Z,15.80
2019-02-20T19:29:00.789Z,12.03
2019-02-20T19:31:48.753Z,22.23
2019-02-20T19:34:48.234Z,13.97
2019-02-20T19:37:19.768Z,20.13
2019-02-20T19:40:13.169Z,17.10
2019-02-20T19:42:44.715Z,25.90
2019-02-20T19:45:35.353Z,15.17
2019-02-20T19:48:31.229Z,13.27
2019-02-20T19:51:08.441Z,22.40
2019-02-20T19:53:54.295Z,18.33
2019-02-20T19:56:28.771Z,15.07
2019-02-20T19:59:06.047Z,15.77
2019-02-20T20:01:54.221Z,15.93
2019-02-20T20:04:45.363Z,18.87
2019-02-20T20:07:27.241Z,17.37
2019-02-20T20:10:33.646Z,13.50
2019-02-20T20:13:23.440Z,21.73
2019-02-20T20:16:09.801Z,15.33
2019-02-20T20:18:47.716Z,13.20
2019-02-20T20:21:24.686Z,16.63
2019-02-20T20:24:11.159Z,15.00
2019-02-20T20:26:56.080Z,21.40
2019-02-20T20:30:02.612Z,12.30
2019-02-20T20:32:56.321Z,16.67
2019-02-20T20:35:59.818Z,14.93
2019-02-20T20:38:49.144Z,15.43
2019-02-20T20:41:54.166Z,15.03
2019-02-20T20:44:43.765Z,19.10
2019-02-20T20:47:17.953Z,23.00
2019-02-20T20:49:58.070Z,18.20
2019-02-20T20:52:43.864Z,14.67
2019-02-20T20:55:32.077Z,21.90
2019-02-20T20:58:15.165Z,14.73
2019-02-20T21:01:01.375Z,18.30
2019-02-20T21:03:32.849Z,19.77
2019-02-20T21:06:06.995Z,24.93
2019-02-20T21:08:38.835Z,16.97
2019-02-20T21:11:39.869Z,18.87
2019-02-20T21:14:26.291Z,13.97
2019-02-20T21:17:06.760Z,24.33
2019-02-20T21:19:40.959Z,32.27
2019-02-20T21:22:17.669Z,21.83
2019-02-20T21:24:49.179Z,22.17
2019-02-20T21:27:32.595Z,23.07
2019-02-20T21:30:06.884Z,19.13
2019-02-20T21:32:41.102Z,15.60
2019-02-20T21:35:39.960Z,20.50
2019-02-20T21:38:32.032Z,29.30
2019-02-20T21:41:17.959Z,22.53
2019-02-20T21:43:51.963Z,19.77
2019-02-20T21:46:45.942Z,18.70
2019-02-20T21:49:32.708Z,20.13
2019-02-20T21:52:04.262Z,20.90
2019-02-20T21:54:41.349Z,24.70
2019-02-20T21:57:24.685Z,22.80
2019-02-20T22:00:09.143Z,25.93
2019-02-20T22:02:43.095Z,18.43
2019-02-20T22:05:20.526Z,18.70
2019-02-20T22:08:23.649Z,24.23
2019-02-20T22:11:04.347Z,23.70
2019-02-20T22:14:04.308Z,28.10
2019-02-20T22:16:38.473Z,29.40
2019-02-20T22:19:31.012Z,24.03
2019-02-20T22:22:08.392Z,24.70
2019-02-20T22:25:04.254Z,24.63
2019-02-20T22:27:41.544Z,26.87
2019-02-20T22:30:32.488Z,39.80
2019-02-20T22:33:09.857Z,28.70
2019-02-20T22:35:47.241Z,24.30
2019-02-20T22:38:27.481Z,29.20
2019-02-20T22:41:01.485Z,25.13
2019-02-20T22:43:52.562Z,24.37
2019-02-20T22:46:26.994Z,22.50
2019-02-20T22:49:06.168Z,24.57
2019-02-20T22:51:49.685Z,22.20
2019-02-20T22:54:40.546Z,21.77
2019-02-20T22:57:20.667Z,25.00
2019-02-20T23:00:15.769Z,28.60
2019-02-20T23:03:02.367Z,26.60
2019-02-20T23:05:57.919Z,25.60
2019-02-20T23:08:44.165Z,31.00
2019-02-20T23:11:44.184Z,26.87
2019-02-20T23:14:27.299Z,28.03
2019-02-20T23:16:55.715Z,28.03
2019-02-20T23:19:24.120Z,37.77
2019-02-20T23:21:52.534Z,28.13
2019-02-20T23:24:20.939Z,27.20
2019-02-20T23:26:49.348Z,25.83
2019-02-20T23:29:17.769Z,26.33
2019-02-20T23:31:46.176Z,26.63
2019-02-20T23:34:14.593Z,32.60
2019-02-20T23:36:42.992Z,30.00
2019-02-20T23:39:11.441Z,23.27
2019-02-20T23:41:39.841Z,30.03
2019-02-20T23:44:08.262Z,28.47
2019-02-20T23:46:36.960Z,29.60
2019-02-20T23:49:05.376Z,32.30
2019-02-20T23:51:33.785Z,32.60
2019-02-20T23:54:02.242Z,25.43
2019-02-20T23:56:30.645Z,28.20
2019-02-20T23:58:59.065Z,30.10
